LFRN/RNS METAR and TAF weather

Enter ICAO airport designator
Station Type Date Time Source
LFRN METAR 2021/08/05 04:00 UTC NOAA

LFRN 050400Z AUTO 21007KT 9999 OVC006 15/14 Q1011 TEMPO 3000 BR BKN003


Station Type Date Time Source
LFRN Decoded METAR 2021/08/05 04:00 UTC NOAA

Rennes, France (LFRN) 48-04N 001-44W 37M
Aug 05, 2021 - 12:00 AM EDT / 2021.08.05 0400 UTC
Wind: from the SSW (210 degrees) at 8 MPH (7 KT):0
Visibility: greater than 7 mile(s):0
Sky conditions: overcast
Temperature: 59 F (15 C)
Dew Point: 57 F (14 C)
Relative Humidity: 93%
Pressure (altimeter): 29.85 in. Hg (1011 hPa)
ob: LFRN 050400Z AUTO 21007KT 9999 OVC006 15/14 Q1011 TEMPO 3000 BR BKN003
cycle: 4

Station Type Date Time Source
LFRN TAF 2021/08/05 02:55 UTC NOAA

TAF
AMD LFRN 050245Z 0502/0524 VRB03KT 9999 SCT040
TEMPO 0502/0506 3000 BR BKN003
TEMPO 0508/0511 RA BKN010
BECMG 0509/0511 20013KT
TEMPO 0512/0514 22015G25KT 3000 RA OVC008
TEMPO 0514/0524 23015G25KT 4000 SHRA

Example: see airport list